createdAt,value
2022-08-22T00:01:29.416Z,4.57
2022-08-22T00:02:53.141Z,2.97
2022-08-22T00:02:55.205Z,3.53
2022-08-22T00:03:06.414Z,3.63
2022-08-22T00:03:09.241Z,3.42
2022-08-22T00:04:02.110Z,4.32
2022-08-22T00:06:40.577Z,4.53
2022-08-22T00:09:29.669Z,4.20
2022-08-22T00:12:12.648Z,4.75
2022-08-22T00:14:58.099Z,3.72
2022-08-22T00:17:35.380Z,4.50
2022-08-22T00:20:17.020Z,4.80
2022-08-22T00:22:56.571Z,4.60
2022-08-22T00:25:42.155Z,4.15
2022-08-22T00:28:20.713Z,4.35
2022-08-22T00:31:07.489Z,4.45
2022-08-22T00:34:00.301Z,4.38
2022-08-22T00:36:48.143Z,4.55
2022-08-22T00:39:32.568Z,4.70
2022-08-22T00:42:02.024Z,4.75
2022-08-22T00:45:03.688Z,4.40
2022-08-22T00:47:57.988Z,4.13
2022-08-22T00:51:06.524Z,4.47
2022-08-22T00:53:50.945Z,4.88
2022-08-22T00:56:38.817Z,4.50
2022-08-22T00:59:32.827Z,4.53
2022-08-22T01:02:31.803Z,4.45
2022-08-22T01:05:27.151Z,5.22
2022-08-22T01:08:15.775Z,5.22
2022-08-22T01:11:20.308Z,4.50
2022-08-22T01:13:52.802Z,4.35
2022-08-22T01:16:44.003Z,4.43
2022-08-22T01:19:29.180Z,4.28
2022-08-22T01:22:29.011Z,4.75
2022-08-22T01:25:42.756Z,4.40
2022-08-22T01:28:15.987Z,4.75
2022-08-22T01:30:54.498Z,4.97
2022-08-22T01:33:58.644Z,4.45
2022-08-22T01:36:48.045Z,4.88
2022-08-22T01:39:20.901Z,4.43
2022-08-22T01:42:08.668Z,4.68
2022-08-22T01:44:41.271Z,4.30
2022-08-22T01:47:14.049Z,4.68
2022-08-22T01:49:49.862Z,4.90
2022-08-22T01:52:29.297Z,4.90
2022-08-22T01:55:22.793Z,5.05
2022-08-22T01:57:59.498Z,5.15
2022-08-22T02:00:35.437Z,4.70
2022-08-22T02:03:05.214Z,5.05
2022-08-22T02:06:00.921Z,5.03
2022-08-22T02:08:30.270Z,5.30
2022-08-22T02:11:10.446Z,5.10
2022-08-22T02:13:54.302Z,5.55
2022-08-22T02:16:37.173Z,4.90
2022-08-22T02:19:15.535Z,5.43
2022-08-22T02:22:23.795Z,4.93
2022-08-22T02:25:09.023Z,5.28
2022-08-22T02:27:44.844Z,4.80
2022-08-22T02:30:18.277Z,5.03
2022-08-22T02:32:58.230Z,4.53
2022-08-22T02:35:38.475Z,5.10
2022-08-22T02:38:29.238Z,5.60
2022-08-22T02:41:16.733Z,4.93
2022-08-22T02:46:46.905Z,5.00
2022-08-22T02:49:18.984Z,5.30
2022-08-22T02:51:53.454Z,5.20
2022-08-22T02:54:27.956Z,5.30
2022-08-22T02:57:16.640Z,5.70
2022-08-22T03:00:31.819Z,5.45
2022-08-22T03:03:16.791Z,5.40
2022-08-22T03:05:43.398Z,5.38
2022-08-22T03:08:29.321Z,5.05
2022-08-22T03:11:01.224Z,5.45
2022-08-22T03:14:02.652Z,5.40
2022-08-22T03:16:40.142Z,5.65
2022-08-22T03:19:18.808Z,5.45
2022-08-22T03:22:02.332Z,5.32
2022-08-22T03:24:45.253Z,5.15
2022-08-22T03:27:32.767Z,5.15
2022-08-22T03:30:05.894Z,5.82
2022-08-22T03:32:56.387Z,5.35
2022-08-22T03:35:39.094Z,4.93
2022-08-22T03:38:23.841Z,4.75
2022-08-22T03:41:22.151Z,5.38
2022-08-22T03:44:18.909Z,5.55
2022-08-22T03:47:02.885Z,4.82
2022-08-22T03:49:59.867Z,5.25
2022-08-22T03:53:13.803Z,5.30
2022-08-22T03:56:07.947Z,7.68
2022-08-22T03:58:44.816Z,5.65
2022-08-22T04:01:43.628Z,5.20
2022-08-22T04:04:43.635Z,5.90
2022-08-22T04:07:35.297Z,5.38
2022-08-22T04:10:28.995Z,5.03
2022-08-22T04:13:12.557Z,5.03
2022-08-22T04:15:49.500Z,6.28
2022-08-22T04:18:41.346Z,5.55
2022-08-22T04:21:25.876Z,5.57
2022-08-22T04:24:23.144Z,5.40
2022-08-22T04:26:56.190Z,6.10
2022-08-22T04:29:37.045Z,5.60
2022-08-22T04:32:17.581Z,4.93
2022-08-22T04:34:59.729Z,5.38
2022-08-22T04:37:52.207Z,5.28
2022-08-22T04:40:34.509Z,4.88
2022-08-22T04:43:09.928Z,5.22
2022-08-22T04:45:58.893Z,5.10
2022-08-22T04:48:30.639Z,5.50
2022-08-22T04:51:00.618Z,5.30
2022-08-22T04:53:48.676Z,4.80
2022-08-22T04:56:21.598Z,4.75
2022-08-22T04:59:00.445Z,5.13
2022-08-22T05:01:46.657Z,4.85
2022-08-22T05:04:24.180Z,4.35
2022-08-22T05:06:56.390Z,4.80
2022-08-22T05:09:29.401Z,5.30
2022-08-22T05:12:02.975Z,4.60
2022-08-22T05:14:43.085Z,4.68
2022-08-22T05:17:17.039Z,4.43
2022-08-22T05:19:50.661Z,4.78
2022-08-22T05:22:40.509Z,4.55
2022-08-22T05:25:15.068Z,3.92
2022-08-22T05:30:22.262Z,4.25
2022-08-22T05:33:01.191Z,4.45
2022-08-22T05:35:58.208Z,4.43
2022-08-22T05:38:31.066Z,4.25
2022-08-22T05:41:04.915Z,4.20
2022-08-22T05:43:37.344Z,4.65
2022-08-22T05:46:07.826Z,4.85
2022-08-22T05:48:52.593Z,4.75
2022-08-22T05:51:25.314Z,5.05
2022-08-22T05:54:12.568Z,5.63
2022-08-22T05:56:43.905Z,5.15
2022-08-22T05:59:28.101Z,5.00
2022-08-22T06:02:08.829Z,4.50
2022-08-22T06:04:46.269Z,4.50
2022-08-22T06:07:23.846Z,4.00
2022-08-22T06:10:20.912Z,4.38
2022-08-22T06:12:53.949Z,4.60
2022-08-22T06:15:48.566Z,4.78
2022-08-22T06:18:21.018Z,5.22
2022-08-22T06:21:12.637Z,3.80
2022-08-22T06:23:47.322Z,4.55
2022-08-22T06:26:20.478Z,4.20
2022-08-22T06:29:04.931Z,4.47
2022-08-22T06:31:37.703Z,4.50
2022-08-22T06:34:46.330Z,5.03
2022-08-22T06:37:23.671Z,4.28
2022-08-22T06:39:54.136Z,4.43
2022-08-22T06:42:30.543Z,4.35
2022-08-22T06:45:03.318Z,4.38
2022-08-22T06:47:38.177Z,4.63
2022-08-22T06:50:13.941Z,4.38
2022-08-22T06:52:53.376Z,3.97
2022-08-22T06:55:21.033Z,4.20
2022-08-22T06:57:54.483Z,3.88
2022-08-22T07:00:21.284Z,3.65
2022-08-22T07:02:55.057Z,4.53
2022-08-22T07:07:56.717Z,3.83
2022-08-22T07:10:24.583Z,3.45
2022-08-22T07:12:55.961Z,4.13
2022-08-22T07:15:37.009Z,4.32
2022-08-22T07:18:19.473Z,3.70
2022-08-22T07:20:59.236Z,3.30
2022-08-22T07:23:45.915Z,3.50
2022-08-22T07:26:38.199Z,3.58
2022-08-22T07:29:32.606Z,3.72
2022-08-22T07:32:10.070Z,3.00
2022-08-22T07:35:06.207Z,2.78
2022-08-22T07:37:59.254Z,3.00
2022-08-22T07:40:39.226Z,3.00
2022-08-22T07:43:28.448Z,2.88
2022-08-22T07:46:08.165Z,2.80
2022-08-22T07:49:08.556Z,3.35
2022-08-22T07:51:59.145Z,3.08
2022-08-22T07:55:01.691Z,3.03
2022-08-22T07:57:35.831Z,2.90
2022-08-22T08:00:12.582Z,2.83
2022-08-22T08:02:46.484Z,3.30
2022-08-22T08:05:14.375Z,2.80
2022-08-22T08:07:45.358Z,2.20
2022-08-22T08:10:19.285Z,2.50
2022-08-22T08:12:57.935Z,2.30
2022-08-22T08:15:31.851Z,2.78
2022-08-22T08:18:04.466Z,2.72
2022-08-22T08:20:34.423Z,2.40
2022-08-22T08:23:02.267Z,2.45
2022-08-22T08:25:32.409Z,2.30
2022-08-22T08:28:18.220Z,2.17
2022-08-22T08:30:56.737Z,2.10
2022-08-22T08:33:28.155Z,2.30
2022-08-22T08:36:05.399Z,2.80
2022-08-22T08:38:38.462Z,2.45
2022-08-22T08:41:26.842Z,3.25
2022-08-22T08:44:01.384Z,2.33
2022-08-22T08:47:01.726Z,2.35
2022-08-22T08:49:42.906Z,2.45
2022-08-22T08:52:40.388Z,2.10
2022-08-22T08:55:25.357Z,2.22
2022-08-22T08:58:00.823Z,2.17
2022-08-22T09:00:51.123Z,3.15
2022-08-22T09:03:47.901Z,2.00
2022-08-22T09:06:36.192Z,2.95
2022-08-22T09:09:27.109Z,2.28
2022-08-22T09:12:24.063Z,2.20
2022-08-22T09:15:14.493Z,1.63
2022-08-22T09:18:18.136Z,1.83
2022-08-22T09:21:01.094Z,1.80
2022-08-22T09:23:59.685Z,1.70
2022-08-22T09:29:54.776Z,1.60
2022-08-22T09:32:42.938Z,1.80
2022-08-22T09:35:59.085Z,1.88
2022-08-22T09:38:47.952Z,1.63
2022-08-22T09:41:23.803Z,1.83
2022-08-22T09:44:06.371Z,1.58
2022-08-22T09:46:55.127Z,1.80
2022-08-22T09:50:12.319Z,1.90
2022-08-22T09:53:00.999Z,2.35
2022-08-22T09:55:43.017Z,1.80
2022-08-22T09:58:40.760Z,1.90
2022-08-22T10:01:26.225Z,2.30
2022-08-22T10:04:14.525Z,1.80
2022-08-22T10:06:58.925Z,2.33
2022-08-22T10:09:32.465Z,1.88
2022-08-22T10:12:15.142Z,1.40
2022-08-22T10:15:23.182Z,1.55
2022-08-22T10:18:10.315Z,1.65
2022-08-22T10:20:54.521Z,1.90
2022-08-22T10:23:30.053Z,1.70
2022-08-22T10:26:09.990Z,1.50
2022-08-22T10:28:58.886Z,1.70
2022-08-22T10:31:45.100Z,1.75
2022-08-22T10:34:33.152Z,1.77
2022-08-22T10:37:08.595Z,1.70
2022-08-22T10:39:54.915Z,1.70
2022-08-22T10:42:28.986Z,1.67
2022-08-22T10:45:23.883Z,1.75
2022-08-22T10:48:09.902Z,1.85
2022-08-22T10:50:48.031Z,1.67
2022-08-22T10:53:36.636Z,1.92
2022-08-22T10:56:12.791Z,1.85
2022-08-22T10:58:46.175Z,1.90
2022-08-22T11:01:37.451Z,2.15
2022-08-22T11:04:16.801Z,1.45
2022-08-22T11:06:55.003Z,1.75
2022-08-22T11:09:43.914Z,1.80
2022-08-22T11:12:37.335Z,1.50
2022-08-22T11:15:27.248Z,1.67
2022-08-22T11:21:03.794Z,1.30
2022-08-22T11:23:56.017Z,1.88
2022-08-22T11:26:47.034Z,1.73
2022-08-22T11:29:39.360Z,1.60
2022-08-22T11:32:21.699Z,1.98
2022-08-22T11:35:01.165Z,1.48
2022-08-22T11:37:51.358Z,1.40
2022-08-22T11:40:45.600Z,1.55
2022-08-22T11:43:43.017Z,1.60
2022-08-22T11:46:28.218Z,1.55
2022-08-22T11:49:09.068Z,1.50
2022-08-22T11:51:57.319Z,1.38
2022-08-22T11:54:36.596Z,1.63
2022-08-22T11:57:16.374Z,1.42
2022-08-22T11:59:42.996Z,1.40
2022-08-22T12:02:19.608Z,1.40
2022-08-22T12:05:03.715Z,1.38
2022-08-22T12:07:36.496Z,1.33
2022-08-22T12:10:19.238Z,1.50
2022-08-22T12:12:46.516Z,1.60
2022-08-22T12:15:24.409Z,1.50
2022-08-22T12:18:09.758Z,1.77
2022-08-22T12:21:03.870Z,1.65
2022-08-22T12:23:50.188Z,1.30
2022-08-22T12:26:44.596Z,1.30
2022-08-22T12:29:33.862Z,1.70
2022-08-22T12:32:18.343Z,1.50
2022-08-22T12:35:13.446Z,1.55
2022-08-22T12:37:56.698Z,1.50
2022-08-22T12:40:32.410Z,1.23
2022-08-22T12:43:06.548Z,1.60
2022-08-22T12:45:44.498Z,1.30
2022-08-22T12:48:18.713Z,1.50
2022-08-22T12:50:57.964Z,1.17
2022-08-22T12:54:04.550Z,1.40
2022-08-22T12:56:56.752Z,1.20
2022-08-22T12:59:43.132Z,1.52
2022-08-22T13:02:18.545Z,1.60
2022-08-22T13:04:55.537Z,1.30
2022-08-22T13:07:30.247Z,1.40
2022-08-22T13:10:03.151Z,1.30
2022-08-22T13:12:44.480Z,1.30
2022-08-22T13:15:29.291Z,1.30
2022-08-22T13:18:13.326Z,1.40
2022-08-22T13:20:49.048Z,1.60
2022-08-22T13:23:28.514Z,1.30
2022-08-22T13:26:10.305Z,1.30
2022-08-22T13:28:46.170Z,1.40
2022-08-22T13:31:23.700Z,1.27
2022-08-22T13:33:51.571Z,2.05
2022-08-22T13:36:21.852Z,1.60
2022-08-22T13:38:59.241Z,1.38
2022-08-22T13:41:30.302Z,1.60
2022-08-22T13:44:15.301Z,1.75
2022-08-22T13:46:58.170Z,1.38
2022-08-22T13:49:35.841Z,1.40
2022-08-22T13:52:29.552Z,1.48
2022-08-22T13:55:12.559Z,1.40
2022-08-22T13:57:52.037Z,1.50
2022-08-22T14:00:28.497Z,1.40
2022-08-22T14:02:58.530Z,1.10
2022-08-22T14:05:34.151Z,1.50
2022-08-22T14:08:12.675Z,1.27
2022-08-22T14:10:45.656Z,1.63
2022-08-22T14:13:37.615Z,1.85
2022-08-22T14:16:11.960Z,1.38
2022-08-22T14:18:49.124Z,2.10
2022-08-22T14:21:40.618Z,1.55
2022-08-22T14:24:19.988Z,1.30
2022-08-22T14:27:05.669Z,1.50
2022-08-22T14:29:53.604Z,1.30
2022-08-22T14:32:22.640Z,1.60
2022-08-22T14:35:11.074Z,1.33
2022-08-22T14:37:53.223Z,1.20
2022-08-22T14:40:30.110Z,1.50
2022-08-22T14:43:07.929Z,1.40
2022-08-22T14:45:39.257Z,1.40
2022-08-22T14:48:30.453Z,1.25
2022-08-22T14:51:08.484Z,1.30
2022-08-22T14:53:38.258Z,1.25
2022-08-22T14:56:21.875Z,1.40
2022-08-22T14:59:01.307Z,1.40
2022-08-22T15:01:32.869Z,1.60
2022-08-22T15:04:05.095Z,1.20
2022-08-22T15:06:39.064Z,1.45
2022-08-22T15:09:35.085Z,1.20
2022-08-22T15:12:04.338Z,1.20
2022-08-22T15:14:37.237Z,1.40
2022-08-22T15:17:08.448Z,1.40
2022-08-22T15:19:41.202Z,1.27
2022-08-22T15:22:21.837Z,1.48
2022-08-22T15:25:15.572Z,1.55
2022-08-22T15:28:00.029Z,1.30
2022-08-22T15:30:37.027Z,1.27
2022-08-22T15:33:24.721Z,1.42
2022-08-22T15:35:54.679Z,1.70
2022-08-22T15:38:32.403Z,1.30
2022-08-22T15:41:24.564Z,1.40
2022-08-22T15:44:06.077Z,1.50
2022-08-22T15:46:40.665Z,1.40
2022-08-22T15:49:27.691Z,1.17
2022-08-22T15:52:11.129Z,1.50
2022-08-22T15:54:46.764Z,1.40
2022-08-22T15:57:25.408Z,1.27
2022-08-22T15:59:59.174Z,1.52
2022-08-22T16:02:35.091Z,1.48
2022-08-22T16:05:25.067Z,1.60
2022-08-22T16:08:04.193Z,1.30
2022-08-22T16:10:49.190Z,1.40
2022-08-22T16:13:30.784Z,1.50
2022-08-22T16:16:26.749Z,1.30
2022-08-22T16:18:53.092Z,1.98
2022-08-22T16:21:22.291Z,1.60
2022-08-22T16:23:53.655Z,1.30
2022-08-22T16:26:24.073Z,1.38
2022-08-22T16:29:13.645Z,1.30
2022-08-22T16:34:16.328Z,1.80
2022-08-22T16:37:02.973Z,1.40
2022-08-22T16:39:38.000Z,1.55
2022-08-22T16:42:14.284Z,1.55
2022-08-22T16:44:43.004Z,1.30
2022-08-22T16:47:14.361Z,1.50
2022-08-22T16:49:58.886Z,1.38
2022-08-22T16:52:25.299Z,1.50
2022-08-22T16:55:25.862Z,1.70
2022-08-22T16:58:17.274Z,1.35
2022-08-22T17:00:57.942Z,1.40
2022-08-22T17:04:08.132Z,1.50
2022-08-22T17:07:07.055Z,1.50
2022-08-22T17:09:39.994Z,1.35
2022-08-22T17:12:25.221Z,1.67
2022-08-22T17:15:21.442Z,1.60
2022-08-22T17:18:40.877Z,1.40
2022-08-22T17:21:25.861Z,1.33
2022-08-22T17:23:55.391Z,1.70
2022-08-22T17:26:55.182Z,1.45
2022-08-22T17:29:32.021Z,1.38
2022-08-22T17:32:36.037Z,1.42
2022-08-22T17:35:17.563Z,1.75
2022-08-22T17:38:08.937Z,1.50
2022-08-22T17:40:45.472Z,2.10
2022-08-22T17:43:21.716Z,1.50
2022-08-22T17:45:48.070Z,1.52
2022-08-22T17:48:40.637Z,1.70
2022-08-22T17:51:28.277Z,1.70
2022-08-22T17:54:01.155Z,1.60
2022-08-22T17:56:39.331Z,1.38
2022-08-22T17:59:20.925Z,1.40
2022-08-22T18:01:53.447Z,2.42
2022-08-22T18:04:57.594Z,1.70
2022-08-22T18:07:44.217Z,1.48
2022-08-22T18:10:29.517Z,1.35
2022-08-22T18:13:08.669Z,1.50
2022-08-22T18:15:52.180Z,1.70
2022-08-22T18:18:39.167Z,1.80
2022-08-22T18:21:19.870Z,2.53
2022-08-22T18:26:42.708Z,1.83
2022-08-22T18:29:20.733Z,1.80
2022-08-22T18:31:55.566Z,2.03
2022-08-22T18:34:34.225Z,1.67
2022-08-22T18:37:15.531Z,1.98
2022-08-22T18:39:56.299Z,1.88
2022-08-22T18:44:53.322Z,2.00
2022-08-22T18:47:33.110Z,1.60
2022-08-22T18:50:02.609Z,1.70
2022-08-22T18:52:29.003Z,1.65
2022-08-22T18:55:27.177Z,1.80
2022-08-22T18:58:37.977Z,1.95
2022-08-22T19:01:23.022Z,1.48
2022-08-22T19:04:01.160Z,1.60
2022-08-22T19:06:36.924Z,1.67
2022-08-22T19:09:23.226Z,1.88
2022-08-22T19:12:06.660Z,1.70
2022-08-22T19:14:51.457Z,1.85
2022-08-22T19:17:20.614Z,2.00
2022-08-22T19:20:34.985Z,1.67
2022-08-22T19:23:40.733Z,1.63
2022-08-22T19:26:35.621Z,1.60
2022-08-22T19:29:15.984Z,2.50
2022-08-22T19:31:57.741Z,1.63
2022-08-22T19:34:30.127Z,1.70
2022-08-22T19:37:32.795Z,1.67
2022-08-22T19:40:20.184Z,1.80
2022-08-22T19:42:49.832Z,2.45
2022-08-22T19:45:26.444Z,1.92
2022-08-22T19:47:58.375Z,1.70
2022-08-22T19:50:35.321Z,1.83
2022-08-22T19:53:47.249Z,1.90
2022-08-22T19:56:50.482Z,1.88
2022-08-22T19:59:51.095Z,2.00
2022-08-22T20:02:49.392Z,2.20
2022-08-22T20:05:47.370Z,2.00
2022-08-22T20:08:42.137Z,2.08
2022-08-22T20:11:27.128Z,1.98
2022-08-22T20:14:29.985Z,2.30
2022-08-22T20:17:23.699Z,1.90
2022-08-22T20:20:18.560Z,2.13
2022-08-22T20:22:52.703Z,2.35
2022-08-22T20:25:43.690Z,2.10
2022-08-22T20:28:57.193Z,2.08
2022-08-22T20:31:27.065Z,2.22
2022-08-22T20:34:11.875Z,2.20
2022-08-22T20:36:43.778Z,2.42
2022-08-22T20:39:16.249Z,2.25
2022-08-22T20:41:48.701Z,2.10
2022-08-22T20:44:16.079Z,2.22
2022-08-22T20:46:53.417Z,2.40
2022-08-22T20:49:28.196Z,2.13
2022-08-22T20:52:04.182Z,1.92
2022-08-22T20:54:34.188Z,2.10
2022-08-22T20:57:16.105Z,2.20
2022-08-22T20:59:52.164Z,2.00
2022-08-22T21:02:27.371Z,2.10
2022-08-22T21:05:03.151Z,2.38
2022-08-22T21:07:37.083Z,2.20
2022-08-22T21:10:27.298Z,2.28
2022-08-22T21:13:16.303Z,2.20
2022-08-22T21:15:46.965Z,2.50
2022-08-22T21:18:24.831Z,2.00
2022-08-22T21:20:51.687Z,2.20
2022-08-22T21:23:19.508Z,2.10
2022-08-22T21:26:00.638Z,2.13
2022-08-22T21:28:48.967Z,1.95
2022-08-22T21:31:21.957Z,2.20
2022-08-22T21:33:50.526Z,2.60
2022-08-22T21:36:20.586Z,2.35
2022-08-22T21:38:55.575Z,2.20
2022-08-22T21:41:27.396Z,2.33
2022-08-22T21:43:54.263Z,2.50
2022-08-22T21:46:27.418Z,2.92
2022-08-22T21:49:04.328Z,3.22
2022-08-22T21:51:36.907Z,2.90
2022-08-22T21:54:29.114Z,2.70
2022-08-22T21:56:57.583Z,2.70
2022-08-22T22:02:27.831Z,2.42
2022-08-22T22:04:54.527Z,2.63
2022-08-22T22:07:23.896Z,2.58
2022-08-22T22:09:54.835Z,2.70
2022-08-22T22:12:23.163Z,2.35
2022-08-22T22:14:49.976Z,2.53
2022-08-22T22:17:18.182Z,2.60
2022-08-22T22:19:45.247Z,2.58
2022-08-22T22:22:11.792Z,2.75
2022-08-22T22:24:38.193Z,2.63
2022-08-22T22:27:05.245Z,3.10
2022-08-22T22:29:33.409Z,2.60
2022-08-22T22:34:26.362Z,2.38
2022-08-22T22:36:54.373Z,2.67
2022-08-22T22:39:23.776Z,2.90
2022-08-22T22:41:50.260Z,2.90
2022-08-22T22:44:16.847Z,2.80
2022-08-22T22:46:48.071Z,2.83
2022-08-22T22:49:14.514Z,2.80
2022-08-22T22:51:40.975Z,2.78
2022-08-22T22:54:07.509Z,2.88
2022-08-22T22:56:37.934Z,2.88
2022-08-22T22:59:13.491Z,2.70
2022-08-22T23:02:01.555Z,2.80
2022-08-22T23:04:28.911Z,3.10
2022-08-22T23:06:55.855Z,2.83
2022-08-22T23:09:23.939Z,2.83
2022-08-22T23:12:06.012Z,3.67
2022-08-22T23:14:32.903Z,3.08
2022-08-22T23:16:59.843Z,3.28
2022-08-22T23:19:27.165Z,2.70
2022-08-22T23:21:59.253Z,3.08
2022-08-22T23:24:33.866Z,3.28
2022-08-22T23:27:01.108Z,3.13
2022-08-22T23:29:27.854Z,3.00
2022-08-22T23:32:00.176Z,2.88
2022-08-22T23:34:29.525Z,3.20
2022-08-22T23:36:58.180Z,2.90
2022-08-22T23:39:26.821Z,2.72
2022-08-22T23:41:54.255Z,3.13
2022-08-22T23:44:24.139Z,3.10
2022-08-22T23:46:51.293Z,3.10
2022-08-22T23:49:18.809Z,3.00
2022-08-22T23:51:46.849Z,3.15
2022-08-22T23:54:13.599Z,3.13
2022-08-22T23:56:46.550Z,3.35
2022-08-22T23:59:17.578Z,3.20
